KAIZ/AIZ METAR and TAF weather

Enter ICAO airport designator
Station Type Date Time Source
KAIZ METAR 2021/09/24 04:56 UTC NOAA

KAIZ 240456Z AUTO 00000KT 10SM CLR 11/09 A3008 RMK AO2 SLP183 T01110094


Station Type Date Time Source
KAIZ Decoded METAR 2021/09/24 04:56 UTC NOAA

Kaiser Lake Ozark, Lee C Fine Memorial Airport, MO, United States (KAIZ) 38-06N 092-33W
Sep 24, 2021 - 12:56 AM EDT / 2021.09.24 0456 UTC
Wind: Calm:0
Visibility: 10 mile(s):0
Sky conditions: clear
Temperature: 52.0 F (11.1 C)
Dew Point: 48.9 F (9.4 C)
Relative Humidity: 89%
Pressure (altimeter): 30.08 in. Hg (1018 hPa)
ob: KAIZ 240456Z AUTO 00000KT 10SM CLR 11/09 A3008 RMK AO2 SLP183 T01110094
cycle: 5

Station Type Date Time Source
KAIZ TAF UTC NOAA

Error!

Example: see airport list